createdAt,value
2023-01-19T00:01:44.183Z,88.55
2023-01-19T00:04:11.714Z,88.92
2023-01-19T00:06:39.241Z,88.95
2023-01-19T00:09:06.713Z,88.00
2023-01-19T00:11:34.198Z,88.39
2023-01-19T00:14:01.740Z,89.19
2023-01-19T00:16:30.554Z,88.68
2023-01-19T00:18:58.189Z,88.25
2023-01-19T00:21:25.650Z,88.24
2023-01-19T00:23:53.160Z,88.54
2023-01-19T00:26:22.151Z,89.15
2023-01-19T00:28:50.687Z,89.70
2023-01-19T00:31:20.465Z,90.18
2023-01-19T00:33:51.418Z,90.94
2023-01-19T00:36:19.323Z,91.40
2023-01-19T00:38:47.380Z,92.03
2023-01-19T00:41:14.878Z,92.57
2023-01-19T00:43:41.429Z,92.60
2023-01-19T00:46:08.987Z,92.36
2023-01-19T00:48:37.499Z,91.97
2023-01-19T00:51:06.608Z,92.26
2023-01-19T00:53:34.099Z,91.81
2023-01-19T00:56:01.597Z,91.34
2023-01-19T00:58:29.100Z,91.02
2023-01-19T01:00:57.763Z,91.36
2023-01-19T01:03:27.822Z,91.13
2023-01-19T01:05:55.365Z,90.48
2023-01-19T01:08:24.201Z,90.51
2023-01-19T01:10:52.059Z,90.55
2023-01-19T01:13:23.591Z,90.08
2023-01-19T01:15:52.741Z,90.28
2023-01-19T01:18:20.576Z,89.79
2023-01-19T01:20:48.242Z,89.85
2023-01-19T01:23:15.794Z,89.84
2023-01-19T01:25:46.514Z,89.78
2023-01-19T01:28:13.964Z,89.52
2023-01-19T01:30:43.206Z,89.35
2023-01-19T01:33:11.426Z,89.43
2023-01-19T01:35:39.656Z,89.37
2023-01-19T01:38:07.589Z,89.27
2023-01-19T01:40:35.176Z,89.41
2023-01-19T01:43:04.000Z,89.38
2023-01-19T01:45:34.652Z,89.08
2023-01-19T01:48:05.406Z,89.15
2023-01-19T01:50:35.428Z,89.91
2023-01-19T01:53:07.325Z,89.37
2023-01-19T01:55:36.498Z,90.12
2023-01-19T01:58:06.467Z,90.19
2023-01-19T02:00:54.675Z,89.53
2023-01-19T02:03:22.764Z,89.66
2023-01-19T02:05:50.367Z,89.42
2023-01-19T02:08:38.938Z,89.39
2023-01-19T02:11:24.623Z,89.06
2023-01-19T02:13:53.907Z,88.39
2023-01-19T02:16:21.459Z,88.93
2023-01-19T02:18:49.459Z,89.10
2023-01-19T02:21:21.078Z,90.10
2023-01-19T02:23:51.180Z,89.65
2023-01-19T02:26:20.426Z,89.37
2023-01-19T02:28:51.251Z,89.37
2023-01-19T02:31:19.244Z,89.43
2023-01-19T02:33:46.841Z,89.26
2023-01-19T02:36:16.587Z,89.96
2023-01-19T02:38:45.940Z,90.66
2023-01-19T02:41:18.095Z,91.54
2023-01-19T02:43:47.204Z,92.16
2023-01-19T02:46:15.483Z,92.68
2023-01-19T02:48:43.761Z,92.14
2023-01-19T02:51:13.556Z,92.40
2023-01-19T02:54:01.452Z,92.16
2023-01-19T02:56:40.814Z,91.30
2023-01-19T02:59:16.258Z,91.39
2023-01-19T03:01:57.702Z,91.01
2023-01-19T03:04:29.954Z,90.87
2023-01-19T03:07:02.176Z,91.71
2023-01-19T03:09:33.608Z,90.88
2023-01-19T03:12:07.927Z,90.60
2023-01-19T03:14:40.032Z,89.49
2023-01-19T03:17:08.695Z,89.72
2023-01-19T03:19:38.998Z,89.10
2023-01-19T03:22:11.639Z,89.04
2023-01-19T03:24:41.520Z,88.77
2023-01-19T03:27:15.195Z,88.97
2023-01-19T03:29:46.583Z,89.07
2023-01-19T03:32:17.158Z,88.80
2023-01-19T03:34:45.195Z,89.13
2023-01-19T03:37:14.392Z,89.37
2023-01-19T03:39:41.891Z,90.15
2023-01-19T03:42:13.652Z,90.30
2023-01-19T03:44:42.637Z,90.25
2023-01-19T03:47:12.382Z,90.83
2023-01-19T03:49:40.409Z,91.17
2023-01-19T03:52:07.908Z,91.71
2023-01-19T03:54:35.549Z,92.40
2023-01-19T03:57:03.493Z,92.53
2023-01-19T03:59:32.291Z,92.18
2023-01-19T04:02:00.493Z,92.27
2023-01-19T04:04:28.025Z,92.44
2023-01-19T04:06:55.868Z,92.43
2023-01-19T04:09:23.381Z,91.72
2023-01-19T04:11:51.334Z,91.53
2023-01-19T04:14:19.047Z,92.07
2023-01-19T04:16:47.852Z,91.95
2023-01-19T04:19:15.449Z,92.37
2023-01-19T04:21:42.953Z,91.92
2023-01-19T04:24:10.591Z,92.04
2023-01-19T04:26:38.075Z,91.22
2023-01-19T04:29:05.595Z,91.74
2023-01-19T04:31:35.466Z,92.02
2023-01-19T04:34:04.417Z,92.05
2023-01-19T04:36:31.964Z,92.28
2023-01-19T04:38:59.455Z,93.13
2023-01-19T04:41:26.956Z,93.49
2023-01-19T04:43:54.436Z,92.77
2023-01-19T04:46:21.999Z,92.46
2023-01-19T04:48:49.555Z,92.25
2023-01-19T04:51:18.393Z,92.44
2023-01-19T04:53:45.887Z,92.21
2023-01-19T04:56:13.465Z,92.62
2023-01-19T04:58:41.121Z,93.28
2023-01-19T05:01:09.418Z,93.12
2023-01-19T05:03:37.083Z,93.37
2023-01-19T05:06:04.930Z,94.29
2023-01-19T05:08:33.796Z,94.49
2023-01-19T05:11:01.388Z,93.87
2023-01-19T05:13:28.991Z,94.56
2023-01-19T05:15:56.517Z,94.66
2023-01-19T05:18:24.147Z,94.81
2023-01-19T05:20:51.619Z,94.82
2023-01-19T05:23:19.146Z,94.73
2023-01-19T05:25:47.974Z,94.73
2023-01-19T05:28:16.686Z,94.79
2023-01-19T05:30:44.248Z,94.50
2023-01-19T05:33:11.736Z,94.47
2023-01-19T05:35:39.190Z,94.55
2023-01-19T05:38:06.685Z,94.91
2023-01-19T05:40:34.405Z,93.81
2023-01-19T05:43:05.208Z,94.37
2023-01-19T05:45:33.426Z,94.65
2023-01-19T05:48:01.267Z,94.50
2023-01-19T05:50:28.765Z,94.28
2023-01-19T05:52:56.366Z,94.63
2023-01-19T05:55:24.047Z,94.76
2023-01-19T05:57:51.531Z,94.42
2023-01-19T06:00:21.436Z,94.50
2023-01-19T06:02:49.281Z,94.67
2023-01-19T06:05:17.103Z,94.79
2023-01-19T06:07:44.571Z,94.11
2023-01-19T06:10:12.516Z,94.24
2023-01-19T06:12:41.353Z,94.07
2023-01-19T06:15:09.495Z,93.60
2023-01-19T06:17:38.540Z,93.72
2023-01-19T06:20:06.972Z,94.00
2023-01-19T06:22:34.557Z,94.06
2023-01-19T06:25:02.275Z,94.21
2023-01-19T06:27:29.771Z,94.75
2023-01-19T06:29:57.262Z,94.79
2023-01-19T06:32:24.813Z,94.31
2023-01-19T06:34:54.207Z,94.29
2023-01-19T06:37:21.916Z,94.87
2023-01-19T06:39:49.389Z,94.84
2023-01-19T06:42:16.899Z,94.77
2023-01-19T06:44:47.481Z,94.90
2023-01-19T06:47:16.407Z,95.07
2023-01-19T06:49:44.484Z,94.53
2023-01-19T06:52:15.810Z,94.97
2023-01-19T06:54:45.388Z,94.46
2023-01-19T06:57:13.260Z,94.46
2023-01-19T06:59:40.970Z,94.17
2023-01-19T07:02:27.715Z,94.42
2023-01-19T07:04:56.087Z,94.77
2023-01-19T07:07:25.104Z,94.75
2023-01-19T07:09:54.007Z,94.33
2023-01-19T07:12:21.797Z,94.57
2023-01-19T07:14:49.500Z,94.81
2023-01-19T07:17:17.044Z,94.56
2023-01-19T07:19:44.527Z,94.49
2023-01-19T07:22:12.036Z,93.83
2023-01-19T07:24:41.304Z,93.84
2023-01-19T07:27:08.748Z,93.88
2023-01-19T07:29:36.217Z,93.94
2023-01-19T07:32:03.681Z,94.44
2023-01-19T07:34:31.203Z,94.01
2023-01-19T07:36:58.704Z,93.99
2023-01-19T07:39:26.150Z,93.54
2023-01-19T07:41:55.236Z,93.67
2023-01-19T07:44:22.934Z,93.66
2023-01-19T07:46:51.093Z,93.78
2023-01-19T07:49:18.560Z,93.70
2023-01-19T07:51:46.026Z,93.87
2023-01-19T07:54:13.513Z,93.24
2023-01-19T07:56:40.977Z,93.17
2023-01-19T07:59:10.761Z,93.01
2023-01-19T08:01:38.613Z,93.63
2023-01-19T08:04:06.259Z,93.20
2023-01-19T08:06:35.047Z,93.21
2023-01-19T08:09:05.408Z,93.32
2023-01-19T08:11:32.977Z,93.03
2023-01-19T08:14:00.775Z,92.54
2023-01-19T08:16:29.559Z,92.47
2023-01-19T08:18:57.043Z,92.40
2023-01-19T08:21:24.549Z,92.12
2023-01-19T08:23:55.825Z,92.68
2023-01-19T08:26:29.093Z,92.30
2023-01-19T08:28:57.937Z,91.87
2023-01-19T08:31:26.244Z,91.75
2023-01-19T08:33:55.139Z,91.49
2023-01-19T08:36:24.869Z,91.90
2023-01-19T08:38:52.354Z,91.75
2023-01-19T08:41:19.852Z,91.56
2023-01-19T08:43:47.546Z,91.55
2023-01-19T08:46:17.320Z,91.31
2023-01-19T08:48:45.240Z,91.85
2023-01-19T08:51:15.160Z,91.16
2023-01-19T08:53:42.762Z,91.05
2023-01-19T08:56:12.492Z,90.73
2023-01-19T08:58:40.531Z,91.12
2023-01-19T09:01:08.751Z,90.70
2023-01-19T09:03:36.379Z,90.01
2023-01-19T09:06:06.601Z,89.10
2023-01-19T09:08:35.426Z,89.11
2023-01-19T09:11:03.408Z,89.09
2023-01-19T09:13:30.918Z,88.67
2023-01-19T09:15:58.494Z,87.70
2023-01-19T09:18:25.984Z,87.72
2023-01-19T09:20:54.860Z,87.40
2023-01-19T09:23:22.562Z,87.74
2023-01-19T09:25:57.149Z,87.03
2023-01-19T09:28:24.853Z,87.11
2023-01-19T09:30:52.372Z,86.53
2023-01-19T09:33:20.616Z,87.18
2023-01-19T09:35:51.717Z,87.02
2023-01-19T09:38:20.512Z,85.82
2023-01-19T09:40:51.735Z,86.21
2023-01-19T09:43:25.460Z,86.04
2023-01-19T09:45:55.239Z,85.05
2023-01-19T09:48:29.519Z,84.69
2023-01-19T09:51:00.535Z,85.04
2023-01-19T09:53:41.313Z,84.20
2023-01-19T09:56:13.723Z,84.31
2023-01-19T09:58:41.734Z,84.19
2023-01-19T10:01:16.791Z,83.45
2023-01-19T10:03:44.354Z,84.05
2023-01-19T10:06:13.899Z,83.59
2023-01-19T10:08:46.648Z,83.77
2023-01-19T10:11:41.882Z,83.71
2023-01-19T10:14:19.705Z,83.78
2023-01-19T10:16:52.633Z,84.67
2023-01-19T10:19:23.569Z,85.28
2023-01-19T10:21:51.701Z,85.51
2023-01-19T10:24:22.536Z,85.98
2023-01-19T10:26:52.650Z,84.90
2023-01-19T10:29:23.997Z,85.35
2023-01-19T10:31:53.086Z,84.57
2023-01-19T10:34:23.574Z,84.50
2023-01-19T10:36:56.321Z,84.55
2023-01-19T10:39:23.925Z,84.93
2023-01-19T10:41:54.145Z,84.78
2023-01-19T10:44:25.859Z,84.59
2023-01-19T10:46:54.348Z,84.90
2023-01-19T10:49:27.417Z,85.21
2023-01-19T10:51:55.741Z,84.92
2023-01-19T10:54:24.080Z,84.61
2023-01-19T10:56:54.629Z,84.73
2023-01-19T10:59:34.160Z,84.65
2023-01-19T11:02:16.140Z,83.94
2023-01-19T11:04:47.262Z,83.45
2023-01-19T11:07:18.739Z,83.48
2023-01-19T11:09:46.419Z,83.40
2023-01-19T11:12:19.691Z,84.19
2023-01-19T11:14:48.207Z,83.80
2023-01-19T11:17:20.432Z,84.24
2023-01-19T11:19:56.160Z,83.75
2023-01-19T11:22:28.071Z,83.96
2023-01-19T11:24:59.324Z,84.10
2023-01-19T11:27:28.916Z,84.29
2023-01-19T11:30:05.230Z,84.19
2023-01-19T11:32:35.662Z,83.69
2023-01-19T11:35:03.816Z,83.19
2023-01-19T11:37:34.425Z,83.85
2023-01-19T11:40:04.138Z,83.77
2023-01-19T11:42:36.453Z,83.55
2023-01-19T11:45:07.585Z,83.61
2023-01-19T11:47:39.896Z,83.98
2023-01-19T11:50:14.665Z,83.87
2023-01-19T11:52:46.118Z,84.08
2023-01-19T11:55:18.888Z,83.68
2023-01-19T11:57:49.830Z,83.70
2023-01-19T12:00:36.117Z,83.00
2023-01-19T12:03:09.363Z,83.38
2023-01-19T12:05:37.755Z,83.77
2023-01-19T12:08:07.169Z,84.53
2023-01-19T12:10:37.176Z,83.74
2023-01-19T12:13:06.000Z,83.83
2023-01-19T12:15:37.411Z,83.22
2023-01-19T12:18:07.658Z,83.44
2023-01-19T12:20:37.916Z,83.25
2023-01-19T12:23:14.887Z,83.64
2023-01-19T12:25:48.388Z,83.00
2023-01-19T12:28:18.467Z,83.70
2023-01-19T12:30:46.050Z,84.41
2023-01-19T12:33:35.773Z,84.72
2023-01-19T12:36:05.059Z,85.78
2023-01-19T12:38:44.915Z,85.58
2023-01-19T12:41:23.696Z,85.43
2023-01-19T12:44:23.039Z,86.34
2023-01-19T12:46:52.625Z,88.32
2023-01-19T12:49:26.187Z,89.03
2023-01-19T12:51:55.149Z,89.56
2023-01-19T12:54:28.153Z,90.28
2023-01-19T12:56:58.953Z,90.24
2023-01-19T12:59:28.620Z,90.05
2023-01-19T13:02:39.148Z,90.70
2023-01-19T13:05:23.197Z,90.63
2023-01-19T13:08:22.714Z,89.33
2023-01-19T13:11:26.006Z,89.25
2023-01-19T13:14:36.245Z,89.47
2023-01-19T13:17:20.318Z,90.49
2023-01-19T13:20:01.483Z,90.65
2023-01-19T13:23:02.560Z,91.03
2023-01-19T13:25:33.658Z,91.70
2023-01-19T13:28:01.910Z,91.84
2023-01-19T13:30:30.664Z,92.33
2023-01-19T13:33:06.501Z,92.36
2023-01-19T13:35:34.009Z,91.65
2023-01-19T13:38:01.746Z,91.83
2023-01-19T13:40:36.717Z,92.16
2023-01-19T13:43:04.655Z,92.76
2023-01-19T13:45:34.309Z,93.39
2023-01-19T13:48:06.053Z,93.02
2023-01-19T13:50:35.399Z,93.58
2023-01-19T13:53:04.591Z,94.02
2023-01-19T13:55:32.500Z,94.51
2023-01-19T13:58:00.025Z,95.17
2023-01-19T14:00:29.002Z,95.21
2023-01-19T14:02:59.133Z,95.43
2023-01-19T14:05:29.814Z,96.02
2023-01-19T14:08:05.373Z,96.66
2023-01-19T14:10:33.647Z,96.36
2023-01-19T14:13:02.634Z,96.48
2023-01-19T14:15:33.729Z,96.47
2023-01-19T14:18:13.140Z,96.81
2023-01-19T14:20:42.497Z,97.67
2023-01-19T14:23:41.346Z,97.66
2023-01-19T14:26:43.114Z,97.36
2023-01-19T14:29:25.491Z,97.23
2023-01-19T14:32:04.860Z,96.64
2023-01-19T14:34:38.785Z,96.99
2023-01-19T14:37:16.602Z,97.10
2023-01-19T14:39:46.293Z,96.75
2023-01-19T14:42:17.771Z,96.66
2023-01-19T14:44:48.888Z,97.09
2023-01-19T14:47:33.109Z,97.37
2023-01-19T14:50:04.917Z,97.43
2023-01-19T14:52:35.901Z,97.69
2023-01-19T14:55:06.694Z,97.87
2023-01-19T14:57:35.321Z,97.47
2023-01-19T15:00:11.731Z,97.46
2023-01-19T15:02:39.306Z,97.90
2023-01-19T15:05:08.773Z,97.32
2023-01-19T15:07:38.082Z,97.69
2023-01-19T15:10:06.625Z,97.32
2023-01-19T15:12:34.097Z,97.03
2023-01-19T15:15:02.198Z,97.53
2023-01-19T15:17:29.759Z,97.43
2023-01-19T15:19:58.009Z,97.84
2023-01-19T15:22:28.216Z,97.39
2023-01-19T15:24:59.960Z,97.62
2023-01-19T15:27:27.915Z,97.63
2023-01-19T15:29:55.516Z,97.74
2023-01-19T15:32:23.050Z,97.43
2023-01-19T15:34:50.561Z,96.95
2023-01-19T15:37:18.078Z,97.69
2023-01-19T15:39:45.691Z,97.89
2023-01-19T15:42:15.904Z,97.89
2023-01-19T15:44:45.031Z,97.76
2023-01-19T15:47:12.651Z,97.63
2023-01-19T15:49:40.246Z,98.14
2023-01-19T15:52:07.909Z,98.28
2023-01-19T15:54:35.578Z,98.37
2023-01-19T15:57:03.144Z,98.74
2023-01-19T15:59:32.477Z,98.84
2023-01-19T16:02:00.253Z,98.72
2023-01-19T16:04:28.096Z,98.49
2023-01-19T16:06:55.670Z,99.15
2023-01-19T16:09:23.615Z,99.48
2023-01-19T16:11:51.602Z,99.23
2023-01-19T16:14:19.266Z,99.33
2023-01-19T16:16:48.346Z,99.48
2023-01-19T16:19:16.590Z,99.08
2023-01-19T16:21:44.894Z,99.36
2023-01-19T16:24:12.564Z,99.72
2023-01-19T16:26:40.710Z,99.42
2023-01-19T16:29:10.634Z,99.23
2023-01-19T16:31:39.257Z,99.67
2023-01-19T16:34:08.561Z,99.40
2023-01-19T16:36:37.679Z,98.86
2023-01-19T16:39:07.364Z,99.34
2023-01-19T16:41:35.221Z,99.10
2023-01-19T16:44:02.963Z,99.07
2023-01-19T16:46:33.832Z,98.88
2023-01-19T16:49:03.113Z,99.09
2023-01-19T16:51:32.517Z,99.22
2023-01-19T16:54:00.128Z,98.85
2023-01-19T16:56:27.881Z,99.06
2023-01-19T16:58:55.533Z,99.16
2023-01-19T17:01:23.491Z,98.84
2023-01-19T17:03:51.514Z,98.66
2023-01-19T17:06:22.586Z,98.52
2023-01-19T17:08:52.750Z,98.72
2023-01-19T17:11:21.851Z,98.57
2023-01-19T17:13:50.086Z,98.79
2023-01-19T17:16:17.765Z,98.38
2023-01-19T17:18:45.387Z,98.35
2023-01-19T17:21:14.120Z,98.47
2023-01-19T17:23:43.807Z,98.67
2023-01-19T17:26:12.759Z,98.98
2023-01-19T17:28:40.816Z,98.99
2023-01-19T17:31:09.393Z,99.18
2023-01-19T17:33:37.492Z,98.59
2023-01-19T17:36:05.540Z,98.55
2023-01-19T17:38:33.376Z,98.25
2023-01-19T17:41:01.053Z,98.56
2023-01-19T17:43:30.049Z,98.99
2023-01-19T17:45:57.808Z,98.75
2023-01-19T17:48:25.678Z,98.70
2023-01-19T17:50:54.145Z,98.88
2023-01-19T17:53:23.464Z,98.63
2023-01-19T17:55:51.036Z,98.74
2023-01-19T17:58:18.586Z,99.04
2023-01-19T18:00:47.699Z,99.22
2023-01-19T18:03:15.477Z,99.34
2023-01-19T18:05:54.018Z,99.53
2023-01-19T18:08:21.885Z,99.75
2023-01-19T18:10:54.448Z,100.00
2023-01-19T18:13:22.286Z,100.00
2023-01-19T18:15:51.870Z,100.00
2023-01-19T18:18:19.564Z,100.00
2023-01-19T18:20:47.023Z,100.00
2023-01-19T18:23:14.941Z,100.00
2023-01-19T18:25:43.115Z,100.00
2023-01-19T18:28:10.678Z,100.00
2023-01-19T18:30:38.735Z,99.75
2023-01-19T18:33:07.633Z,100.00
2023-01-19T18:35:36.021Z,100.00
2023-01-19T18:38:03.473Z,100.00
2023-01-19T18:40:30.943Z,99.69
2023-01-19T18:42:58.413Z,99.40
2023-01-19T18:45:25.969Z,99.46
2023-01-19T18:47:53.458Z,98.73
2023-01-19T18:50:22.469Z,98.86
2023-01-19T18:52:51.296Z,99.26
2023-01-19T18:55:19.050Z,98.38
2023-01-19T18:57:46.493Z,98.60
2023-01-19T19:00:15.106Z,98.37
2023-01-19T19:02:42.736Z,98.72
2023-01-19T19:05:10.570Z,98.54
2023-01-19T19:07:39.374Z,98.31
2023-01-19T19:10:07.876Z,98.37
2023-01-19T19:12:35.481Z,98.31
2023-01-19T19:15:02.936Z,97.94
2023-01-19T19:17:30.434Z,96.72
2023-01-19T19:19:57.952Z,96.48
2023-01-19T19:22:25.719Z,95.91
2023-01-19T19:24:54.688Z,95.45
2023-01-19T19:27:22.433Z,95.55
2023-01-19T19:29:50.231Z,94.93
2023-01-19T19:32:20.319Z,94.76
2023-01-19T19:34:50.504Z,95.37
2023-01-19T19:37:18.109Z,95.05
2023-01-19T19:39:45.625Z,95.37
2023-01-19T19:42:14.655Z,95.69
2023-01-19T19:44:42.484Z,95.29
2023-01-19T19:47:10.188Z,95.64
2023-01-19T19:49:37.910Z,95.85
2023-01-19T19:52:08.697Z,96.10
2023-01-19T19:54:36.557Z,97.54
2023-01-19T19:57:04.432Z,97.37
2023-01-19T19:59:33.485Z,97.27
2023-01-19T20:02:01.205Z,95.80
2023-01-19T20:04:28.837Z,95.20
2023-01-19T20:06:56.353Z,95.21
2023-01-19T20:09:24.148Z,95.37
2023-01-19T20:11:52.418Z,95.71
2023-01-19T20:14:22.325Z,96.51
2023-01-19T20:16:52.206Z,97.15
2023-01-19T20:19:19.787Z,96.98
2023-01-19T20:21:47.513Z,97.30
2023-01-19T20:24:17.099Z,97.40
2023-01-19T20:26:46.854Z,97.71
2023-01-19T20:29:14.429Z,98.15
2023-01-19T20:31:44.307Z,98.33
2023-01-19T20:34:15.585Z,99.10
2023-01-19T20:36:44.235Z,99.07
2023-01-19T20:39:12.711Z,99.86
2023-01-19T20:41:44.888Z,100.00
2023-01-19T20:44:12.856Z,100.00
2023-01-19T20:46:40.543Z,100.00
2023-01-19T20:49:08.200Z,99.87
2023-01-19T20:51:37.374Z,99.77
2023-01-19T20:54:05.142Z,100.00
2023-01-19T20:56:32.747Z,99.79
2023-01-19T20:59:02.003Z,98.91
2023-01-19T21:01:29.653Z,98.77
2023-01-19T21:03:57.430Z,98.25
2023-01-19T21:06:25.571Z,98.21
2023-01-19T21:08:54.912Z,97.91
2023-01-19T21:11:23.937Z,97.18
2023-01-19T21:13:55.676Z,96.68
2023-01-19T21:16:24.401Z,95.47
2023-01-19T21:18:52.193Z,96.16
2023-01-19T21:21:29.735Z,95.72
2023-01-19T21:24:00.516Z,95.93
2023-01-19T21:26:29.641Z,95.26
2023-01-19T21:28:58.303Z,95.55
2023-01-19T21:31:27.813Z,95.53
2023-01-19T21:33:55.955Z,95.59
2023-01-19T21:36:24.538Z,95.65
2023-01-19T21:38:52.351Z,95.17
2023-01-19T21:41:21.442Z,95.04
2023-01-19T21:43:49.001Z,94.94
2023-01-19T21:46:18.865Z,94.58
2023-01-19T21:48:46.807Z,95.07
2023-01-19T21:51:14.806Z,94.79
2023-01-19T21:53:42.826Z,93.66
2023-01-19T21:56:11.315Z,94.03
2023-01-19T21:58:40.307Z,94.04
2023-01-19T22:01:10.748Z,94.14
2023-01-19T22:03:38.484Z,93.95
2023-01-19T22:06:07.200Z,94.09
2023-01-19T22:08:34.817Z,94.64
2023-01-19T22:11:05.327Z,93.76
2023-01-19T22:13:33.143Z,93.29
2023-01-19T22:16:02.938Z,93.76
2023-01-19T22:18:35.221Z,93.69
2023-01-19T22:21:10.587Z,94.26
2023-01-19T22:23:38.288Z,95.26
2023-01-19T22:26:06.313Z,94.86
2023-01-19T22:28:33.881Z,94.86
2023-01-19T22:31:08.553Z,95.52
2023-01-19T22:33:36.348Z,94.83
2023-01-19T22:36:12.553Z,95.54
2023-01-19T22:38:40.562Z,95.91
2023-01-19T22:41:15.928Z,95.45
2023-01-19T22:43:44.053Z,95.10
2023-01-19T22:46:13.062Z,95.26
2023-01-19T22:48:41.386Z,95.73
2023-01-19T22:51:09.246Z,95.52
2023-01-19T22:53:36.844Z,94.81
2023-01-19T22:56:11.693Z,95.25
2023-01-19T22:58:40.799Z,95.22
2023-01-19T23:01:09.020Z,95.25
2023-01-19T23:03:38.040Z,95.08
2023-01-19T23:06:06.300Z,95.32
2023-01-19T23:08:34.202Z,95.07
2023-01-19T23:11:05.413Z,95.20
2023-01-19T23:13:32.947Z,94.69
2023-01-19T23:16:00.807Z,95.01
2023-01-19T23:18:28.468Z,95.34
2023-01-19T23:21:03.256Z,95.58
2023-01-19T23:23:30.890Z,95.91
2023-01-19T23:26:01.274Z,95.43
2023-01-19T23:28:28.899Z,95.82
2023-01-19T23:30:56.657Z,95.80
2023-01-19T23:33:24.426Z,96.53
2023-01-19T23:35:51.975Z,96.65
2023-01-19T23:38:22.470Z,96.73
2023-01-19T23:40:50.271Z,96.95
2023-01-19T23:43:17.938Z,96.34
2023-01-19T23:45:45.543Z,96.33
2023-01-19T23:48:13.088Z,95.69
2023-01-19T23:50:41.462Z,95.25
2023-01-19T23:53:09.228Z,94.05
2023-01-19T23:55:38.154Z,93.25
2023-01-19T23:58:05.893Z,93.62
